createdAt,value
2018-10-19T00:00:28.254Z,14.40
2018-10-19T00:01:31.673Z,11.68
2018-10-19T00:02:35.073Z,13.48
2018-10-19T00:03:38.502Z,13.08
2018-10-19T00:04:41.922Z,12.28
2018-10-19T00:05:46.355Z,15.40
2018-10-19T00:06:49.819Z,13.43
2018-10-19T00:07:53.250Z,12.68
2018-10-19T00:08:56.749Z,13.18
2018-10-19T00:10:00.161Z,12.50
2018-10-19T00:11:04.503Z,13.22
2018-10-19T00:12:08.020Z,14.43
2018-10-19T00:13:11.466Z,14.33
2018-10-19T00:14:14.928Z,14.18
2018-10-19T00:15:19.397Z,13.32
2018-10-19T00:16:23.966Z,13.68
2018-10-19T00:17:27.409Z,15.55
2018-10-19T00:18:30.863Z,15.10
2018-10-19T00:19:34.359Z,14.18
2018-10-19T00:20:38.822Z,15.93
2018-10-19T00:21:42.296Z,14.95
2018-10-19T00:22:45.695Z,13.75
2018-10-19T00:23:49.120Z,12.37
2018-10-19T00:24:52.512Z,13.10
2018-10-19T00:25:57.014Z,13.45
2018-10-19T00:27:00.522Z,11.30
2018-10-19T00:28:03.932Z,13.75
2018-10-19T00:29:07.422Z,12.63
2018-10-19T00:30:12.320Z,14.50
2018-10-19T00:31:16.826Z,13.50
2018-10-19T00:32:20.310Z,11.88
2018-10-19T00:33:23.749Z,14.75
2018-10-19T00:34:27.202Z,16.80
2018-10-19T00:35:31.722Z,12.18
2018-10-19T00:36:35.238Z,11.48
2018-10-19T00:37:38.889Z,11.93
2018-10-19T00:38:42.358Z,16.32
2018-10-19T00:39:46.775Z,11.95
2018-10-19T00:40:51.311Z,13.18
2018-10-19T00:41:54.768Z,13.68
2018-10-19T00:42:58.272Z,12.63
2018-10-19T00:44:01.711Z,13.15
2018-10-19T00:45:06.583Z,12.95
2018-10-19T00:46:11.218Z,12.80
2018-10-19T00:47:14.868Z,15.93
2018-10-19T00:48:19.458Z,13.62
2018-10-19T00:49:22.895Z,14.60
2018-10-19T00:50:27.402Z,13.70
2018-10-19T00:51:30.955Z,12.95
2018-10-19T00:52:34.399Z,14.80
2018-10-19T00:53:37.811Z,13.32
2018-10-19T00:54:41.225Z,14.65
2018-10-19T00:55:45.658Z,13.28
2018-10-19T00:56:49.097Z,12.70
2018-10-19T00:57:52.537Z,13.08
2018-10-19T00:58:55.998Z,12.03
2018-10-19T00:59:59.353Z,15.50
2018-10-19T01:01:03.851Z,13.50
2018-10-19T01:02:07.291Z,14.93
2018-10-19T01:03:11.136Z,15.30
2018-10-19T01:04:14.550Z,13.22
2018-10-19T01:05:19.001Z,12.93
2018-10-19T01:06:23.304Z,15.23
2018-10-19T01:07:26.737Z,12.00
2018-10-19T01:08:30.128Z,12.43
2018-10-19T01:09:33.556Z,13.28
2018-10-19T01:10:38.657Z,13.32
2018-10-19T01:11:42.095Z,13.68
2018-10-19T01:12:45.654Z,11.95
2018-10-19T01:13:49.049Z,12.78
2018-10-19T01:14:52.438Z,11.22
2018-10-19T01:15:56.843Z,12.68
2018-10-19T01:17:00.280Z,14.03
2018-10-19T01:18:03.669Z,12.07
2018-10-19T01:19:07.075Z,12.88
2018-10-19T01:20:12.385Z,11.95
2018-10-19T01:21:17.316Z,11.80
2018-10-19T01:22:20.775Z,13.18
2018-10-19T01:23:24.220Z,12.05
2018-10-19T01:24:27.640Z,11.43
2018-10-19T01:25:32.919Z,13.28
2018-10-19T01:26:36.411Z,13.13
2018-10-19T01:27:39.803Z,15.25
2018-10-19T01:28:43.285Z,18.12
2018-10-19T01:29:46.666Z,17.42
2018-10-19T01:30:51.450Z,17.27
2018-10-19T01:31:54.891Z,18.85
2018-10-19T01:32:58.374Z,20.30
2018-10-19T01:34:01.771Z,17.75
2018-10-19T01:35:07.199Z,13.85
2018-10-19T01:36:11.740Z,20.45
2018-10-19T01:37:15.192Z,17.12
2018-10-19T01:38:18.593Z,13.72
2018-10-19T01:39:22.018Z,13.62
2018-10-19T01:40:26.749Z,11.53
2018-10-19T01:41:30.504Z,12.60
2018-10-19T01:42:33.935Z,12.35
2018-10-19T01:43:37.424Z,12.63
2018-10-19T01:44:40.848Z,16.27
2018-10-19T01:45:50.960Z,15.32
2018-10-19T01:46:54.453Z,13.32
2018-10-19T01:47:58.252Z,12.45
2018-10-19T01:49:01.672Z,13.53
2018-10-19T01:50:06.198Z,14.25
2018-10-19T01:51:10.657Z,13.38
2018-10-19T01:52:14.141Z,15.60
2018-10-19T01:53:17.655Z,14.58
2018-10-19T01:54:20.975Z,13.48
2018-10-19T01:55:25.468Z,13.90
2018-10-19T01:56:29.526Z,12.53
2018-10-19T01:57:32.960Z,12.18
2018-10-19T01:58:36.370Z,14.15
2018-10-19T01:59:39.822Z,15.98
2018-10-19T02:00:44.340Z,13.18
2018-10-19T02:01:47.762Z,13.50
2018-10-19T02:02:51.165Z,12.53
2018-10-19T02:03:54.630Z,15.00
2018-10-19T02:04:58.068Z,15.05
2018-10-19T02:06:03.157Z,13.80
2018-10-19T02:07:06.665Z,14.40
2018-10-19T02:08:10.879Z,12.68
2018-10-19T02:09:14.392Z,13.48
2018-10-19T02:10:19.802Z,14.65
2018-10-19T02:11:24.008Z,13.70
2018-10-19T02:12:27.438Z,12.35
2018-10-19T02:13:30.814Z,14.55
2018-10-19T02:14:34.252Z,16.37
2018-10-19T02:15:39.705Z,13.72
2018-10-19T02:16:43.140Z,14.90
2018-10-19T02:17:46.553Z,13.53
2018-10-19T02:18:50.051Z,11.95
2018-10-19T02:19:53.439Z,13.48
2018-10-19T02:20:57.901Z,12.50
2018-10-19T02:22:01.382Z,14.43
2018-10-19T02:23:04.916Z,13.83
2018-10-19T02:24:08.943Z,12.37
2018-10-19T02:25:13.809Z,12.33
2018-10-19T02:26:18.297Z,13.80
2018-10-19T02:27:21.715Z,15.03
2018-10-19T02:28:25.237Z,12.75
2018-10-19T02:29:28.909Z,14.35
2018-10-19T02:30:33.463Z,12.93
2018-10-19T02:31:36.939Z,13.48
2018-10-19T02:32:40.364Z,14.53
2018-10-19T02:33:43.786Z,15.83
2018-10-19T02:34:47.170Z,14.43
2018-10-19T02:35:52.794Z,13.18
2018-10-19T02:36:56.296Z,15.15
2018-10-19T02:37:59.692Z,12.88
2018-10-19T02:39:03.322Z,13.93
2018-10-19T02:40:08.599Z,14.15
2018-10-19T02:41:13.939Z,14.47
2018-10-19T02:42:17.396Z,15.28
2018-10-19T02:43:20.768Z,14.25
2018-10-19T02:44:24.188Z,14.40
2018-10-19T02:45:29.341Z,13.28
2018-10-19T02:46:32.748Z,13.62
2018-10-19T02:47:36.144Z,13.10
2018-10-19T02:48:39.756Z,12.73
2018-10-19T02:49:43.157Z,16.45
2018-10-19T02:50:48.400Z,13.08
2018-10-19T02:51:51.821Z,14.80
2018-10-19T02:52:55.364Z,12.78
2018-10-19T02:53:58.691Z,16.55
2018-10-19T02:55:02.252Z,13.48
2018-10-19T02:56:07.310Z,13.80
2018-10-19T02:57:10.819Z,13.55
2018-10-19T02:58:14.194Z,15.68
2018-10-19T02:59:17.666Z,14.58
2018-10-19T03:00:22.647Z,14.58
2018-10-19T03:01:27.043Z,12.45
2018-10-19T03:02:30.477Z,15.13
2018-10-19T03:03:33.945Z,14.90
2018-10-19T03:04:37.348Z,13.75
2018-10-19T03:05:41.848Z,15.78
2018-10-19T03:06:45.269Z,14.90
2018-10-19T03:07:48.680Z,18.82
2018-10-19T03:08:52.106Z,16.90
2018-10-19T03:09:55.504Z,16.23
2018-10-19T03:11:00.158Z,17.98
2018-10-19T03:12:03.592Z,17.00
2018-10-19T03:13:06.984Z,15.93
2018-10-19T03:14:10.374Z,15.75
2018-10-19T03:15:15.006Z,15.48
2018-10-19T03:16:20.034Z,17.62
2018-10-19T03:17:23.441Z,16.12
2018-10-19T03:18:26.865Z,15.45
2018-10-19T03:19:30.283Z,14.15
2018-10-19T03:20:36.490Z,14.50
2018-10-19T03:21:39.914Z,13.55
2018-10-19T03:22:43.326Z,14.80
2018-10-19T03:23:46.718Z,14.85
2018-10-19T03:24:50.161Z,15.40
2018-10-19T03:25:55.283Z,14.85
2018-10-19T03:26:58.745Z,15.32
2018-10-19T03:28:02.155Z,14.90
2018-10-19T03:29:06.416Z,17.30
2018-10-19T03:30:10.973Z,15.25
2018-10-19T03:31:15.511Z,15.10
2018-10-19T03:32:18.936Z,15.45
2018-10-19T03:33:22.374Z,16.40
2018-10-19T03:34:25.797Z,17.23
2018-10-19T03:35:30.281Z,14.70
2018-10-19T03:36:33.732Z,17.50
2018-10-19T03:37:37.141Z,14.20
2018-10-19T03:38:40.545Z,15.70
2018-10-19T03:39:44.188Z,15.18
2018-10-19T03:40:48.696Z,15.80
2018-10-19T03:41:52.137Z,14.15
2018-10-19T03:42:55.563Z,14.83
2018-10-19T03:43:58.960Z,13.58
2018-10-19T03:45:02.432Z,13.83
2018-10-19T03:46:07.370Z,15.10
2018-10-19T03:47:10.880Z,14.60
2018-10-19T03:48:14.352Z,16.35
2018-10-19T03:49:17.822Z,14.75
2018-10-19T03:50:22.869Z,16.85
2018-10-19T03:51:27.305Z,13.88
2018-10-19T03:52:30.700Z,16.25
2018-10-19T03:53:34.101Z,16.65
2018-10-19T03:54:37.492Z,16.82
2018-10-19T03:55:42.120Z,16.93
2018-10-19T03:56:45.572Z,15.35
2018-10-19T03:57:48.989Z,16.10
2018-10-19T03:58:52.431Z,15.48
2018-10-19T03:59:55.873Z,13.55
2018-10-19T04:01:01.261Z,16.52
2018-10-19T04:02:04.968Z,14.73
2018-10-19T04:03:08.476Z,16.15
2018-10-19T04:04:11.831Z,15.03
2018-10-19T04:05:17.528Z,16.35
2018-10-19T04:06:22.641Z,18.82
2018-10-19T04:07:26.103Z,15.28
2018-10-19T04:08:29.491Z,15.15
2018-10-19T04:09:32.891Z,14.45
2018-10-19T04:10:37.544Z,13.22
2018-10-19T04:11:41.286Z,14.63
2018-10-19T04:12:44.765Z,13.80
2018-10-19T04:13:48.210Z,15.05
2018-10-19T04:14:51.619Z,15.45
2018-10-19T04:15:56.373Z,14.93
2018-10-19T04:16:59.832Z,13.55
2018-10-19T04:18:03.212Z,15.63
2018-10-19T04:19:06.931Z,13.95
2018-10-19T04:20:12.676Z,14.23
2018-10-19T04:21:17.284Z,14.80
2018-10-19T04:22:20.669Z,15.68
2018-10-19T04:23:24.090Z,17.27
2018-10-19T04:24:27.504Z,13.30
2018-10-19T04:25:32.072Z,17.75
2018-10-19T04:26:36.024Z,15.95
2018-10-19T04:27:39.592Z,16.97
2018-10-19T04:28:43.017Z,14.63
2018-10-19T04:29:46.443Z,17.82
2018-10-19T04:30:50.987Z,17.50
2018-10-19T04:31:54.435Z,17.65
2018-10-19T04:32:57.912Z,17.77
2018-10-19T04:34:01.361Z,15.63
2018-10-19T04:35:06.166Z,16.62
2018-10-19T04:36:10.790Z,16.82
2018-10-19T04:37:14.281Z,17.40
2018-10-19T04:38:17.720Z,18.05
2018-10-19T04:39:21.145Z,17.48
2018-10-19T04:40:26.045Z,20.65
2018-10-19T04:41:30.155Z,17.42
2018-10-19T04:42:33.511Z,20.43
2018-10-19T04:43:36.927Z,17.95
2018-10-19T04:44:40.365Z,18.60
2018-10-19T04:45:45.178Z,18.27
2018-10-19T04:46:48.634Z,16.85
2018-10-19T04:47:52.127Z,18.05
2018-10-19T04:48:55.436Z,18.35
2018-10-19T04:49:58.849Z,19.32
2018-10-19T04:51:03.273Z,19.30
2018-10-19T04:52:06.692Z,18.90
2018-10-19T04:53:10.168Z,17.90
2018-10-19T04:54:13.477Z,19.07
2018-10-19T04:55:20.051Z,16.87
2018-10-19T04:56:24.291Z,16.00
2018-10-19T04:57:27.717Z,17.23
2018-10-19T04:58:31.111Z,17.35
2018-10-19T04:59:34.566Z,17.77
2018-10-19T05:00:39.010Z,17.55
2018-10-19T05:01:42.641Z,17.80
2018-10-19T05:02:46.144Z,17.67
2018-10-19T05:03:49.669Z,17.52
2018-10-19T05:04:53.106Z,17.37
2018-10-19T05:05:58.094Z,15.88
2018-10-19T05:07:01.927Z,16.77
2018-10-19T05:08:05.331Z,15.90
2018-10-19T05:09:10.423Z,18.50
2018-10-19T05:10:14.962Z,18.52
2018-10-19T05:11:20.217Z,16.97
2018-10-19T05:12:23.527Z,18.42
2018-10-19T05:13:26.948Z,17.65
2018-10-19T05:14:30.312Z,19.07
2018-10-19T05:15:34.619Z,19.92
2018-10-19T05:16:38.553Z,18.85
2018-10-19T05:17:41.954Z,18.62
2018-10-19T05:18:45.348Z,17.25
2018-10-19T05:19:48.741Z,18.85
2018-10-19T05:20:53.321Z,18.20
2018-10-19T05:21:56.801Z,16.93
2018-10-19T05:23:00.266Z,17.55
2018-10-19T05:24:03.652Z,23.07
2018-10-19T05:25:10.119Z,20.25
2018-10-19T05:26:14.523Z,20.25
2018-10-19T05:27:17.962Z,18.90
2018-10-19T05:28:21.388Z,21.07
2018-10-19T05:29:24.812Z,18.60
2018-10-19T05:30:29.311Z,20.90
2018-10-19T05:31:32.752Z,17.90
2018-10-19T05:32:36.177Z,19.52
2018-10-19T05:33:39.708Z,18.32
2018-10-19T05:34:43.070Z,17.73
2018-10-19T05:35:47.590Z,19.65
2018-10-19T05:36:51.082Z,19.75
2018-10-19T05:37:54.497Z,20.72
2018-10-19T05:38:57.898Z,21.25
2018-10-19T05:40:01.685Z,19.50
2018-10-19T05:41:06.340Z,18.48
2018-10-19T05:42:09.821Z,21.42
2018-10-19T05:43:13.249Z,20.25
2018-10-19T05:44:16.669Z,18.40
2018-10-19T05:45:21.138Z,19.57
2018-10-19T05:46:25.266Z,20.27
2018-10-19T05:47:28.670Z,17.80
2018-10-19T05:48:32.124Z,21.40
2018-10-19T05:49:35.576Z,18.85
2018-10-19T05:50:40.024Z,23.75
2018-10-19T05:51:43.461Z,22.37
2018-10-19T05:52:46.917Z,24.47
2018-10-19T05:53:50.328Z,20.70
2018-10-19T05:54:53.841Z,19.80
2018-10-19T05:55:58.378Z,20.25
2018-10-19T05:57:02.025Z,20.35
2018-10-19T05:58:05.457Z,21.25
2018-10-19T05:59:08.924Z,21.87
2018-10-19T06:00:13.704Z,22.45
2018-10-19T06:01:18.360Z,21.27
2018-10-19T06:02:21.920Z,27.35
2018-10-19T06:03:25.250Z,21.68
2018-10-19T06:04:28.650Z,19.80
2018-10-19T06:05:33.067Z,20.62
2018-10-19T06:06:36.548Z,19.98
2018-10-19T06:07:39.977Z,22.27
2018-10-19T06:08:43.506Z,23.77
2018-10-19T06:09:46.951Z,25.25
2018-10-19T06:10:51.700Z,22.95
2018-10-19T06:11:55.137Z,22.42
2018-10-19T06:12:58.516Z,20.50
2018-10-19T06:14:01.940Z,21.75
2018-10-19T06:15:07.927Z,21.62
2018-10-19T06:16:13.062Z,21.73
2018-10-19T06:17:16.511Z,25.12
2018-10-19T06:18:19.940Z,29.60
2018-10-19T06:19:23.336Z,23.12
2018-10-19T06:20:28.907Z,25.00
2018-10-19T06:21:32.341Z,23.80
2018-10-19T06:22:36.533Z,21.10
2018-10-19T06:23:39.998Z,25.75
2018-10-19T06:24:43.380Z,21.97
2018-10-19T06:25:48.549Z,27.75
2018-10-19T06:26:52.096Z,19.82
2018-10-19T06:27:55.492Z,23.02
2018-10-19T06:28:58.921Z,22.45
2018-10-19T06:30:02.365Z,21.35
2018-10-19T06:31:06.991Z,24.15
2018-10-19T06:32:10.472Z,24.65
2018-10-19T06:33:13.932Z,24.15
2018-10-19T06:34:17.332Z,27.48
2018-10-19T06:35:21.718Z,21.02
2018-10-19T06:36:26.588Z,23.60
2018-10-19T06:37:30.002Z,23.05
2018-10-19T06:38:33.413Z,23.30
2018-10-19T06:39:36.932Z,24.55
2018-10-19T06:40:41.421Z,24.47
2018-10-19T06:41:44.962Z,21.40
2018-10-19T06:42:48.395Z,24.05
2018-10-19T06:43:51.801Z,24.10
2018-10-19T06:44:55.205Z,22.77
2018-10-19T06:45:59.693Z,24.37
2018-10-19T06:47:03.196Z,24.25
2018-10-19T06:48:06.687Z,22.25
2018-10-19T06:49:10.218Z,25.37
2018-10-19T06:50:15.655Z,21.45
2018-10-19T06:51:20.493Z,22.55
2018-10-19T06:52:23.950Z,21.42
2018-10-19T06:53:27.337Z,21.33
2018-10-19T06:54:30.884Z,19.40
2018-10-19T06:55:35.725Z,20.88
2018-10-19T06:56:39.188Z,27.82
2018-10-19T06:57:42.676Z,23.95
2018-10-19T06:58:46.131Z,25.48
2018-10-19T06:59:49.564Z,26.20
2018-10-19T07:00:53.877Z,27.37
2018-10-19T07:01:57.399Z,22.77
2018-10-19T07:03:00.760Z,25.32
2018-10-19T07:04:04.174Z,23.85
2018-10-19T07:05:09.487Z,22.35
2018-10-19T07:06:14.923Z,19.60
2018-10-19T07:07:18.390Z,18.48
2018-10-19T07:08:21.825Z,25.88
2018-10-19T07:09:25.264Z,22.60
2018-10-19T07:10:30.007Z,25.80
2018-10-19T07:11:34.122Z,17.05
2018-10-19T07:12:37.551Z,23.62
2018-10-19T07:13:40.958Z,19.92
2018-10-19T07:14:44.332Z,18.00
2018-10-19T07:15:48.822Z,15.18
2018-10-19T07:16:52.319Z,19.12
2018-10-19T07:17:55.724Z,16.87
2018-10-19T07:18:59.208Z,16.65
2018-10-19T07:20:02.820Z,20.65
2018-10-19T07:21:07.234Z,20.37
2018-10-19T07:22:10.652Z,18.27
2018-10-19T07:23:14.198Z,21.75
2018-10-19T07:24:17.625Z,24.40
2018-10-19T07:25:22.318Z,22.80
2018-10-19T07:26:27.108Z,20.00
2018-10-19T07:27:30.581Z,22.55
2018-10-19T07:28:34.032Z,22.45
2018-10-19T07:29:37.595Z,24.02
2018-10-19T07:30:41.981Z,23.60
2018-10-19T07:31:45.474Z,20.08
2018-10-19T07:32:48.894Z,19.95
2018-10-19T07:33:53.005Z,23.27
2018-10-19T07:34:56.477Z,28.12
2018-10-19T07:36:01.058Z,17.95
2018-10-19T07:37:04.593Z,19.98
2018-10-19T07:38:08.466Z,21.15
2018-10-19T07:39:11.896Z,21.33
2018-10-19T07:40:16.331Z,16.80
2018-10-19T07:41:20.971Z,16.62
2018-10-19T07:42:24.778Z,20.77
2018-10-19T07:43:28.111Z,18.60
2018-10-19T07:44:31.567Z,17.67
2018-10-19T07:45:36.030Z,21.90
2018-10-19T07:46:39.492Z,17.40
2018-10-19T07:47:43.072Z,18.35
2018-10-19T07:48:46.481Z,20.80
2018-10-19T07:49:49.883Z,23.70
2018-10-19T07:50:54.265Z,17.80
2018-10-19T07:51:57.893Z,18.45
2018-10-19T07:53:01.387Z,21.55
2018-10-19T07:54:04.887Z,19.62
2018-10-19T07:55:10.646Z,22.98
2018-10-19T07:56:15.422Z,16.85
2018-10-19T07:57:18.829Z,19.23
2018-10-19T07:58:22.340Z,15.95
2018-10-19T07:59:25.732Z,17.27
2018-10-19T08:00:30.255Z,19.25
2018-10-19T08:01:33.716Z,21.33
2018-10-19T08:02:37.176Z,20.48
2018-10-19T08:03:40.617Z,19.30
2018-10-19T08:04:44.357Z,19.05
2018-10-19T08:05:49.937Z,18.75
2018-10-19T08:06:53.481Z,17.25
2018-10-19T08:07:56.945Z,17.12
2018-10-19T08:09:00.324Z,18.35
2018-10-19T08:10:04.226Z,17.95
2018-10-19T08:11:09.268Z,15.32
2018-10-19T08:12:12.669Z,18.48
2018-10-19T08:13:16.149Z,19.80
2018-10-19T08:14:19.650Z,19.90
2018-10-19T08:15:24.615Z,24.85
2018-10-19T08:16:28.876Z,23.18
2018-10-19T08:17:32.404Z,19.92
2018-10-19T08:18:35.869Z,20.92
2018-10-19T08:19:39.299Z,21.93
2018-10-19T08:20:43.966Z,21.85
2018-10-19T08:21:47.424Z,23.87
2018-10-19T08:22:50.819Z,23.67
2018-10-19T08:23:54.252Z,18.30
2018-10-19T08:24:57.676Z,18.65
2018-10-19T08:26:02.438Z,20.80
2018-10-19T08:27:06.136Z,23.90
2018-10-19T08:28:09.568Z,21.77
2018-10-19T08:29:13.061Z,20.30
2018-10-19T08:30:17.539Z,20.95
2018-10-19T08:31:22.023Z,20.00
2018-10-19T08:32:25.437Z,17.32
2018-10-19T08:33:28.877Z,21.82
2018-10-19T08:34:32.368Z,19.30
2018-10-19T08:35:36.801Z,20.52
2018-10-19T08:36:40.281Z,21.42
2018-10-19T08:37:43.782Z,21.27
2018-10-19T08:38:47.192Z,20.30
2018-10-19T08:39:50.848Z,20.68
2018-10-19T08:40:55.410Z,22.10
2018-10-19T08:41:58.985Z,23.00
2018-10-19T08:43:02.470Z,24.12
2018-10-19T08:44:06.069Z,22.27
2018-10-19T08:45:10.574Z,21.87
2018-10-19T08:46:19.851Z,19.80
2018-10-19T08:47:23.289Z,21.77
2018-10-19T08:48:26.677Z,21.82
2018-10-19T08:49:30.605Z,18.12
2018-10-19T08:50:36.183Z,23.27
2018-10-19T08:51:40.681Z,23.32
2018-10-19T08:52:44.089Z,18.95
2018-10-19T08:53:47.568Z,19.12
2018-10-19T08:54:51.009Z,21.82
2018-10-19T08:55:55.415Z,21.17
2018-10-19T08:56:58.956Z,19.77
2018-10-19T08:58:02.376Z,19.62
2018-10-19T08:59:05.832Z,20.72
2018-10-19T09:00:11.944Z,17.62
2018-10-19T09:01:16.445Z,21.50
2018-10-19T09:02:19.872Z,19.37
2018-10-19T09:03:23.313Z,21.35
2018-10-19T09:04:26.711Z,21.50
2018-10-19T09:05:31.378Z,23.80
2018-10-19T09:06:34.841Z,17.90
2018-10-19T09:07:38.625Z,21.85
2018-10-19T09:08:42.021Z,21.75
2018-10-19T09:09:45.437Z,22.55
2018-10-19T09:10:50.042Z,20.72
2018-10-19T09:11:53.581Z,21.15
2018-10-19T09:12:57.176Z,21.90
2018-10-19T09:14:00.540Z,21.77
2018-10-19T09:15:04.745Z,24.00
2018-10-19T09:16:09.945Z,29.45
2018-10-19T09:17:13.440Z,21.62
2018-10-19T09:18:16.884Z,22.93
2018-10-19T09:19:20.301Z,18.17
2018-10-19T09:20:24.633Z,24.10
2018-10-19T09:21:28.836Z,22.25
2018-10-19T09:22:32.267Z,24.05
2018-10-19T09:23:35.704Z,19.62
2018-10-19T09:24:39.271Z,20.70
2018-10-19T09:25:43.250Z,24.15
2018-10-19T09:26:46.675Z,23.98
2018-10-19T09:27:50.079Z,25.50
2018-10-19T09:28:53.622Z,22.77
2018-10-19T09:29:57.079Z,24.85
2018-10-19T09:31:01.538Z,23.25
2018-10-19T09:32:05.265Z,23.45
2018-10-19T09:33:08.903Z,23.75
2018-10-19T09:34:12.532Z,24.60
2018-10-19T09:35:17.148Z,27.73
2018-10-19T09:36:21.659Z,21.57
2018-10-19T09:37:25.080Z,23.15
2018-10-19T09:38:28.653Z,24.12
2018-10-19T09:39:32.065Z,24.02
2018-10-19T09:40:36.430Z,25.60
2018-10-19T09:41:39.853Z,24.43
2018-10-19T09:42:43.329Z,25.77
2018-10-19T09:43:46.818Z,21.52
2018-10-19T09:44:50.246Z,22.02
2018-10-19T09:45:54.705Z,25.80
2018-10-19T09:46:58.401Z,20.72
2018-10-19T09:48:01.994Z,22.45
2018-10-19T09:49:06.522Z,23.60
2018-10-19T09:50:10.351Z,25.65
2018-10-19T09:51:14.244Z,23.95
2018-10-19T09:52:17.579Z,23.05
2018-10-19T09:53:21.015Z,21.05
2018-10-19T09:54:24.486Z,26.42
2018-10-19T09:55:28.991Z,20.62
2018-10-19T09:56:32.570Z,22.22
2018-10-19T09:57:36.073Z,25.40
2018-10-19T09:58:39.931Z,24.90
2018-10-19T09:59:43.589Z,21.30
2018-10-19T10:00:52.924Z,23.30
2018-10-19T10:01:56.391Z,23.80
2018-10-19T10:02:59.853Z,26.93
2018-10-19T10:04:03.857Z,25.82
2018-10-19T10:05:07.588Z,31.70
2018-10-19T10:06:12.136Z,30.62
2018-10-19T10:07:15.757Z,26.77
2018-10-19T10:08:19.185Z,29.52
2018-10-19T10:09:22.677Z,26.20
2018-10-19T10:10:27.607Z,26.25
2018-10-19T10:11:31.156Z,28.40
2018-10-19T10:12:35.296Z,28.32
2018-10-19T10:13:38.773Z,32.83
2018-10-19T10:14:42.283Z,30.32
2018-10-19T10:15:46.722Z,28.98
2018-10-19T10:16:50.197Z,34.48
2018-10-19T10:17:53.622Z,30.72
2018-10-19T10:18:57.057Z,36.05
2018-10-19T10:20:00.493Z,31.82
2018-10-19T10:21:04.908Z,32.70
2018-10-19T10:22:08.988Z,36.03
2018-10-19T10:23:12.330Z,30.23
2018-10-19T10:24:15.781Z,31.33
2018-10-19T10:25:20.283Z,31.82
2018-10-19T10:26:24.527Z,35.28
2018-10-19T10:27:27.997Z,42.43
2018-10-19T10:28:31.477Z,36.45
2018-10-19T10:29:34.878Z,36.48
2018-10-19T10:30:39.388Z,39.63
2018-10-19T10:31:42.811Z,35.60
2018-10-19T10:32:46.259Z,36.75
2018-10-19T10:33:50.193Z,40.00
2018-10-19T10:34:53.621Z,34.98
2018-10-19T10:35:59.129Z,35.45
2018-10-19T10:37:02.630Z,36.48
2018-10-19T10:38:06.474Z,40.75
2018-10-19T10:39:11.828Z,32.67
2018-10-19T10:40:16.237Z,33.10
2018-10-19T10:41:20.681Z,34.43
2018-10-19T10:42:24.100Z,33.13
2018-10-19T10:43:27.510Z,30.40
2018-10-19T10:44:30.927Z,30.77
2018-10-19T10:45:35.516Z,33.18
2018-10-19T10:46:39.034Z,32.05
2018-10-19T10:47:42.532Z,34.35
2018-10-19T10:48:46.029Z,31.07
2018-10-19T10:49:49.516Z,35.70
2018-10-19T10:50:54.619Z,31.02
2018-10-19T10:51:58.128Z,33.18
2018-10-19T10:53:01.573Z,29.85
2018-10-19T10:54:05.141Z,33.42
2018-10-19T10:55:10.784Z,29.80
2018-10-19T10:56:15.320Z,28.47
2018-10-19T10:57:18.781Z,28.70
2018-10-19T10:58:22.167Z,29.65
2018-10-19T10:59:25.619Z,30.43
2018-10-19T11:00:30.279Z,30.02
2018-10-19T11:01:33.786Z,34.05
2018-10-19T11:02:37.270Z,33.23
2018-10-19T11:03:40.656Z,30.43
2018-10-19T11:04:44.103Z,28.98
2018-10-19T11:05:48.755Z,28.05
2018-10-19T11:06:52.192Z,31.35
2018-10-19T11:07:55.618Z,32.88
2018-10-19T11:08:59.024Z,31.70
2018-10-19T11:10:02.495Z,31.97
2018-10-19T11:11:12.664Z,29.20
2018-10-19T11:12:16.108Z,33.45
2018-10-19T11:13:19.537Z,30.80
2018-10-19T11:14:22.956Z,32.83
2018-10-19T11:15:27.363Z,29.55
2018-10-19T11:16:31.025Z,30.00
2018-10-19T11:17:34.478Z,29.52
2018-10-19T11:18:38.164Z,31.65
2018-10-19T11:19:41.581Z,28.27
2018-10-19T11:20:47.038Z,30.75
2018-10-19T11:21:50.452Z,29.42
2018-10-19T11:22:53.969Z,38.78
2018-10-19T11:23:57.453Z,34.03
2018-10-19T11:25:00.862Z,33.70
2018-10-19T11:26:05.737Z,36.13
2018-10-19T11:27:09.169Z,32.93
2018-10-19T11:28:12.657Z,34.55
2018-10-19T11:29:16.013Z,35.85
2018-10-19T11:30:20.546Z,39.65
2018-10-19T11:31:25.111Z,30.62
2018-10-19T11:32:28.558Z,39.08
2018-10-19T11:33:32.090Z,33.05
2018-10-19T11:34:35.525Z,33.95
2018-10-19T11:35:40.039Z,35.83
2018-10-19T11:36:43.517Z,39.67
2018-10-19T11:37:47.153Z,35.15
2018-10-19T11:38:50.724Z,35.65
2018-10-19T11:40:05.875Z,37.55
2018-10-19T11:41:10.485Z,37.42
2018-10-19T11:42:13.960Z,37.93
2018-10-19T11:43:17.604Z,36.05
2018-10-19T11:44:21.054Z,37.80
2018-10-19T11:45:26.804Z,34.08
2018-10-19T11:46:30.331Z,38.15
2018-10-19T11:47:33.774Z,37.93
2018-10-19T11:48:37.192Z,40.78
2018-10-19T11:49:40.572Z,37.93
2018-10-19T11:50:45.018Z,38.70
2018-10-19T11:51:48.926Z,35.52
2018-10-19T11:52:52.326Z,37.88
2018-10-19T11:53:55.727Z,35.55
2018-10-19T11:54:59.227Z,41.77
2018-10-19T11:56:05.078Z,33.75
2018-10-19T11:57:08.617Z,34.40
2018-10-19T11:58:12.075Z,37.93
2018-10-19T11:59:15.369Z,41.40
2018-10-19T12:00:19.906Z,37.23
2018-10-19T12:01:24.284Z,35.03
2018-10-19T12:02:27.724Z,32.23
2018-10-19T12:03:31.187Z,35.65
2018-10-19T12:04:34.741Z,33.50
2018-10-19T12:05:39.214Z,32.10
2018-10-19T12:06:42.652Z,33.92
2018-10-19T12:07:46.820Z,36.30
2018-10-19T12:08:50.204Z,33.10
2018-10-19T12:09:53.608Z,34.88
2018-10-19T12:10:58.067Z,28.75
2018-10-19T12:12:01.545Z,34.88
2018-10-19T12:13:05.310Z,37.17
2018-10-19T12:14:08.713Z,33.28
2018-10-19T12:15:14.673Z,31.30
2018-10-19T12:16:19.290Z,38.73
2018-10-19T12:17:22.749Z,31.50
2018-10-19T12:18:26.263Z,31.82
2018-10-19T12:19:29.656Z,30.20
2018-10-19T12:20:34.271Z,27.65
2018-10-19T12:21:37.701Z,32.80
2018-10-19T12:22:41.216Z,28.20
2018-10-19T12:23:44.708Z,27.95
2018-10-19T12:24:48.187Z,31.17
2018-10-19T12:25:53.430Z,32.88
2018-10-19T12:26:56.897Z,28.32
2018-10-19T12:28:00.295Z,31.52
2018-10-19T12:29:03.713Z,28.77
2018-10-19T12:30:09.027Z,30.62
2018-10-19T12:31:13.801Z,27.45
2018-10-19T12:32:17.236Z,26.68
2018-10-19T12:33:20.656Z,30.43
2018-10-19T12:34:24.057Z,28.10
2018-10-19T12:35:28.824Z,28.80
2018-10-19T12:36:32.279Z,33.38
2018-10-19T12:37:35.735Z,33.40
2018-10-19T12:38:39.197Z,33.18
2018-10-19T12:39:42.584Z,30.43
2018-10-19T12:40:47.063Z,28.92
2018-10-19T12:41:50.484Z,30.55
2018-10-19T12:42:53.901Z,29.90
2018-10-19T12:43:57.288Z,29.40
2018-10-19T12:45:00.919Z,28.10
2018-10-19T12:46:29.844Z,29.55
2018-10-19T12:47:40.601Z,27.52
2018-10-19T12:48:44.004Z,27.67
2018-10-19T12:49:47.529Z,28.15
2018-10-19T12:50:52.176Z,27.22
2018-10-19T12:51:55.640Z,29.87
2018-10-19T12:52:59.048Z,24.72
2018-10-19T12:54:02.533Z,26.60
2018-10-19T12:55:08.215Z,28.90
2018-10-19T12:56:12.664Z,26.23
2018-10-19T12:57:16.240Z,23.02
2018-10-19T12:58:19.532Z,21.37
2018-10-19T12:59:22.934Z,27.82
2018-10-19T13:00:27.803Z,22.82
2018-10-19T13:01:31.800Z,19.27
2018-10-19T13:02:35.771Z,24.25
2018-10-19T13:03:40.081Z,23.45
2018-10-19T13:04:43.388Z,20.80
2018-10-19T13:05:47.945Z,27.73
2018-10-19T13:06:51.377Z,24.25
2018-10-19T13:07:54.761Z,23.42
2018-10-19T13:08:58.609Z,21.87
2018-10-19T13:10:02.110Z,22.95
2018-10-19T13:11:06.888Z,23.18
2018-10-19T13:12:10.304Z,21.97
2018-10-19T13:13:13.788Z,23.20
2018-10-19T13:14:17.155Z,25.90
2018-10-19T13:15:21.646Z,21.90
2018-10-19T13:16:26.778Z,20.95
2018-10-19T13:17:30.253Z,25.40
2018-10-19T13:18:34.043Z,24.63
2018-10-19T13:19:37.488Z,21.55
2018-10-19T13:20:42.460Z,21.97
2018-10-19T13:21:45.932Z,20.35
2018-10-19T13:22:49.336Z,20.52
2018-10-19T13:23:52.835Z,22.45
2018-10-19T13:24:56.250Z,20.08
2018-10-19T13:26:00.998Z,20.35
2018-10-19T13:27:04.743Z,20.62
2018-10-19T13:28:08.168Z,18.00
2018-10-19T13:29:11.545Z,18.75
2018-10-19T13:30:15.997Z,22.77
2018-10-19T13:31:21.085Z,22.90
2018-10-19T13:32:24.645Z,19.35
2018-10-19T13:33:28.053Z,18.45
2018-10-19T13:34:31.461Z,20.92
2018-10-19T13:35:35.856Z,20.92
2018-10-19T13:36:39.300Z,21.45
2018-10-19T13:37:42.736Z,19.75
2018-10-19T13:38:46.144Z,20.05
2018-10-19T13:39:49.559Z,20.35
2018-10-19T13:40:54.763Z,20.55
2018-10-19T13:41:58.527Z,22.77
2018-10-19T13:43:02.165Z,22.32